sensor_id;sensor_type;location;lat;lon;timestamp;temperature;humidity
11666;DHT22;5889;51.350;6.708;2023-11-19T00:02:19;11.40;99.90
11666;DHT22;5889;51.350;6.708;2023-11-19T00:04:46;11.40;99.90
11666;DHT22;5889;51.350;6.708;2023-11-19T00:07:12;11.50;99.90
11666;DHT22;5889;51.350;6.708;2023-11-19T00:09:39;11.60;99.90
11666;DHT22;5889;51.350;6.708;2023-11-19T00:12:07;11.70;99.90
11666;DHT22;5889;51.350;6.708;2023-11-19T00:14:35;11.80;99.90
11666;DHT22;5889;51.350;6.708;2023-11-19T00:17:02;11.90;99.90
11666;DHT22;5889;51.350;6.708;2023-11-19T00:19:29;11.90;99.90
11666;DHT22;5889;51.350;6.708;2023-11-19T00:21:56;12.00;99.90
11666;DHT22;5889;51.350;6.708;2023-11-19T00:24:28;12.00;99.90
11666;DHT22;5889;51.350;6.708;2023-11-19T00:26:54;12.10;99.90
11666;DHT22;5889;51.350;6.708;2023-11-19T00:29:21;12.10;99.90
11666;DHT22;5889;51.350;6.708;2023-11-19T00:31:50;12.20;99.90
11666;DHT22;5889;51.350;6.708;2023-11-19T00:34:16;12.20;99.90
11666;DHT22;5889;51.350;6.708;2023-11-19T00:36:47;12.20;99.90
11666;DHT22;5889;51.350;6.708;2023-11-19T00:39:14;12.30;99.90
11666;DHT22;5889;51.350;6.708;2023-11-19T00:41:41;12.30;99.90
11666;DHT22;5889;51.350;6.708;2023-11-19T00:44:08;12.30;99.90
11666;DHT22;5889;51.350;6.708;2023-11-19T00:46:34;12.40;99.90
11666;DHT22;5889;51.350;6.708;2023-11-19T00:49:03;12.40;99.90
11666;DHT22;5889;51.350;6.708;2023-11-19T00:51:30;12.40;99.90
11666;DHT22;5889;51.350;6.708;2023-11-19T00:53:57;12.40;99.90
11666;DHT22;5889;51.350;6.708;2023-11-19T00:56:24;12.50;99.90
11666;DHT22;5889;51.350;6.708;2023-11-19T00:58:51;12.50;99.90
11666;DHT22;5889;51.350;6.708;2023-11-19T01:01:18;12.50;99.90
11666;DHT22;5889;51.350;6.708;2023-11-19T01:03:44;12.50;99.90
11666;DHT22;5889;51.350;6.708;2023-11-19T01:06:13;12.50;99.90
11666;DHT22;5889;51.350;6.708;2023-11-19T01:08:42;12.50;99.90
11666;DHT22;5889;51.350;6.708;2023-11-19T01:11:19;12.50;99.90
11666;DHT22;5889;51.350;6.708;2023-11-19T01:13:47;12.50;99.90
11666;DHT22;5889;51.350;6.708;2023-11-19T01:16:13;12.50;99.90
11666;DHT22;5889;51.350;6.708;2023-11-19T01:18:40;12.60;99.90
11666;DHT22;5889;51.350;6.708;2023-11-19T01:21:07;12.60;99.90
11666;DHT22;5889;51.350;6.708;2023-11-19T01:23:35;12.60;99.90
11666;DHT22;5889;51.350;6.708;2023-11-19T01:26:03;12.60;99.90
11666;DHT22;5889;51.350;6.708;2023-11-19T01:28:31;12.60;99.90
11666;DHT22;5889;51.350;6.708;2023-11-19T01:30:57;12.60;99.90
11666;DHT22;5889;51.350;6.708;2023-11-19T01:33:24;12.70;99.90
11666;DHT22;5889;51.350;6.708;2023-11-19T01:35:51;12.70;99.90
11666;DHT22;5889;51.350;6.708;2023-11-19T01:38:17;12.70;99.90
11666;DHT22;5889;51.350;6.708;2023-11-19T01:40:46;12.70;99.90
11666;DHT22;5889;51.350;6.708;2023-11-19T01:43:12;12.70;99.90
11666;DHT22;5889;51.350;6.708;2023-11-19T01:45:57;12.70;99.90
11666;DHT22;5889;51.350;6.708;2023-11-19T01:48:23;12.80;99.90
11666;DHT22;5889;51.350;6.708;2023-11-19T01:50:50;12.80;99.90
11666;DHT22;5889;51.350;6.708;2023-11-19T01:53:18;12.80;99.90
11666;DHT22;5889;51.350;6.708;2023-11-19T01:55:46;12.80;99.90
11666;DHT22;5889;51.350;6.708;2023-11-19T01:58:14;12.80;99.90
11666;DHT22;5889;51.350;6.708;2023-11-19T02:00:42;12.80;99.90
11666;DHT22;5889;51.350;6.708;2023-11-19T02:03:09;12.80;99.90
11666;DHT22;5889;51.350;6.708;2023-11-19T02:05:37;12.80;99.90
11666;DHT22;5889;51.350;6.708;2023-11-19T02:08:03;12.90;99.90
11666;DHT22;5889;51.350;6.708;2023-11-19T02:10:30;12.90;99.90
11666;DHT22;5889;51.350;6.708;2023-11-19T02:12:58;12.90;99.90
11666;DHT22;5889;51.350;6.708;2023-11-19T02:15:25;12.90;99.90
11666;DHT22;5889;51.350;6.708;2023-11-19T02:17:52;12.90;99.90
11666;DHT22;5889;51.350;6.708;2023-11-19T02:20:19;12.80;99.90
11666;DHT22;5889;51.350;6.708;2023-11-19T02:22:47;12.80;99.90
11666;DHT22;5889;51.350;6.708;2023-11-19T02:25:21;12.80;99.90
11666;DHT22;5889;51.350;6.708;2023-11-19T02:27:54;12.80;99.90
11666;DHT22;5889;51.350;6.708;2023-11-19T02:30:22;12.80;99.90
11666;DHT22;5889;51.350;6.708;2023-11-19T02:32:52;12.80;99.90
11666;DHT22;5889;51.350;6.708;2023-11-19T02:35:19;12.80;99.90
11666;DHT22;5889;51.350;6.708;2023-11-19T02:37:47;12.90;99.90
11666;DHT22;5889;51.350;6.708;2023-11-19T02:40:14;12.90;99.90
11666;DHT22;5889;51.350;6.708;2023-11-19T02:42:40;12.90;99.90
11666;DHT22;5889;51.350;6.708;2023-11-19T02:45:09;12.90;99.90
11666;DHT22;5889;51.350;6.708;2023-11-19T02:47:39;12.90;99.90
11666;DHT22;5889;51.350;6.708;2023-11-19T02:50:08;13.00;99.90
11666;DHT22;5889;51.350;6.708;2023-11-19T02:52:39;13.00;99.90
11666;DHT22;5889;51.350;6.708;2023-11-19T02:55:06;13.00;99.90
11666;DHT22;5889;51.350;6.708;2023-11-19T02:57:35;13.00;99.90
11666;DHT22;5889;51.350;6.708;2023-11-19T03:00:03;13.00;99.90
11666;DHT22;5889;51.350;6.708;2023-11-19T03:02:39;13.00;99.90
11666;DHT22;5889;51.350;6.708;2023-11-19T03:05:10;13.00;99.90
11666;DHT22;5889;51.350;6.708;2023-11-19T03:07:37;13.00;99.90
11666;DHT22;5889;51.350;6.708;2023-11-19T03:10:05;13.00;99.90
11666;DHT22;5889;51.350;6.708;2023-11-19T03:12:32;13.10;99.90
11666;DHT22;5889;51.350;6.708;2023-11-19T03:14:59;13.10;99.90
11666;DHT22;5889;51.350;6.708;2023-11-19T03:17:26;13.10;99.90
11666;DHT22;5889;51.350;6.708;2023-11-19T03:19:54;13.00;99.90
11666;DHT22;5889;51.350;6.708;2023-11-19T03:22:21;13.00;99.90
11666;DHT22;5889;51.350;6.708;2023-11-19T03:24:50;13.00;99.90
11666;DHT22;5889;51.350;6.708;2023-11-19T03:27:17;13.00;99.90
11666;DHT22;5889;51.350;6.708;2023-11-19T03:29:44;13.00;99.90
11666;DHT22;5889;51.350;6.708;2023-11-19T03:32:11;12.90;99.90
11666;DHT22;5889;51.350;6.708;2023-11-19T03:34:38;13.00;99.90
11666;DHT22;5889;51.350;6.708;2023-11-19T03:37:07;13.00;99.90
11666;DHT22;5889;51.350;6.708;2023-11-19T03:39:34;13.00;99.90
11666;DHT22;5889;51.350;6.708;2023-11-19T03:42:01;13.00;99.90
11666;DHT22;5889;51.350;6.708;2023-11-19T03:44:28;12.90;99.90
11666;DHT22;5889;51.350;6.708;2023-11-19T03:46:55;12.90;99.90
11666;DHT22;5889;51.350;6.708;2023-11-19T03:49:22;12.90;99.90
11666;DHT22;5889;51.350;6.708;2023-11-19T03:51:50;12.90;99.90
11666;DHT22;5889;51.350;6.708;2023-11-19T03:54:18;12.90;99.90
11666;DHT22;5889;51.350;6.708;2023-11-19T03:56:45;12.80;99.90
11666;DHT22;5889;51.350;6.708;2023-11-19T03:59:12;12.80;99.90
11666;DHT22;5889;51.350;6.708;2023-11-19T04:01:46;12.80;99.90
11666;DHT22;5889;51.350;6.708;2023-11-19T04:04:13;12.80;99.90
11666;DHT22;5889;51.350;6.708;2023-11-19T04:06:40;12.80;99.90
11666;DHT22;5889;51.350;6.708;2023-11-19T04:09:06;12.80;99.90
11666;DHT22;5889;51.350;6.708;2023-11-19T04:11:36;12.80;99.90
11666;DHT22;5889;51.350;6.708;2023-11-19T04:14:02;12.80;99.90
11666;DHT22;5889;51.350;6.708;2023-11-19T04:16:30;12.70;99.90
11666;DHT22;5889;51.350;6.708;2023-11-19T04:18:56;12.70;99.90
11666;DHT22;5889;51.350;6.708;2023-11-19T04:21:23;12.70;99.90
11666;DHT22;5889;51.350;6.708;2023-11-19T04:23:50;12.70;99.90
11666;DHT22;5889;51.350;6.708;2023-11-19T04:26:17;12.70;99.90
11666;DHT22;5889;51.350;6.708;2023-11-19T04:28:45;12.60;99.90
11666;DHT22;5889;51.350;6.708;2023-11-19T04:31:12;12.60;99.90
11666;DHT22;5889;51.350;6.708;2023-11-19T04:33:38;12.60;99.90
11666;DHT22;5889;51.350;6.708;2023-11-19T04:36:06;12.60;99.90
11666;DHT22;5889;51.350;6.708;2023-11-19T04:38:33;12.60;99.90
11666;DHT22;5889;51.350;6.708;2023-11-19T04:41:00;12.60;99.90
11666;DHT22;5889;51.350;6.708;2023-11-19T04:43:27;12.50;99.90
11666;DHT22;5889;51.350;6.708;2023-11-19T04:45:55;12.50;99.90
11666;DHT22;5889;51.350;6.708;2023-11-19T04:48:22;12.50;99.90
11666;DHT22;5889;51.350;6.708;2023-11-19T04:50:48;12.60;99.90
11666;DHT22;5889;51.350;6.708;2023-11-19T04:53:16;12.60;99.90
11666;DHT22;5889;51.350;6.708;2023-11-19T04:55:43;12.60;99.90
11666;DHT22;5889;51.350;6.708;2023-11-19T04:58:10;12.60;99.90
11666;DHT22;5889;51.350;6.708;2023-11-19T05:00:37;12.60;99.90
11666;DHT22;5889;51.350;6.708;2023-11-19T05:03:05;12.60;99.90
11666;DHT22;5889;51.350;6.708;2023-11-19T05:05:32;12.60;99.90
11666;DHT22;5889;51.350;6.708;2023-11-19T05:07:59;12.60;99.90
11666;DHT22;5889;51.350;6.708;2023-11-19T05:10:26;12.60;99.90
11666;DHT22;5889;51.350;6.708;2023-11-19T05:12:53;12.60;99.90
11666;DHT22;5889;51.350;6.708;2023-11-19T05:15:22;12.60;99.90
11666;DHT22;5889;51.350;6.708;2023-11-19T05:17:48;12.50;99.90
11666;DHT22;5889;51.350;6.708;2023-11-19T05:20:17;12.50;99.90
11666;DHT22;5889;51.350;6.708;2023-11-19T05:22:44;12.50;99.90
11666;DHT22;5889;51.350;6.708;2023-11-19T05:25:11;12.50;99.90
11666;DHT22;5889;51.350;6.708;2023-11-19T05:27:38;12.50;99.90
11666;DHT22;5889;51.350;6.708;2023-11-19T05:30:06;12.60;99.90
11666;DHT22;5889;51.350;6.708;2023-11-19T05:32:34;12.50;99.90
11666;DHT22;5889;51.350;6.708;2023-11-19T05:35:01;12.50;99.90
11666;DHT22;5889;51.350;6.708;2023-11-19T05:37:29;12.60;99.90
11666;DHT22;5889;51.350;6.708;2023-11-19T05:39:56;12.60;99.90
11666;DHT22;5889;51.350;6.708;2023-11-19T05:42:25;12.60;99.90
11666;DHT22;5889;51.350;6.708;2023-11-19T05:44:52;12.60;99.90
11666;DHT22;5889;51.350;6.708;2023-11-19T05:47:19;12.60;99.90
11666;DHT22;5889;51.350;6.708;2023-11-19T05:49:46;12.50;99.90
11666;DHT22;5889;51.350;6.708;2023-11-19T05:52:13;12.60;99.90
11666;DHT22;5889;51.350;6.708;2023-11-19T05:54:41;12.60;99.90
11666;DHT22;5889;51.350;6.708;2023-11-19T05:57:07;12.60;99.90
11666;DHT22;5889;51.350;6.708;2023-11-19T05:59:35;12.50;99.90
11666;DHT22;5889;51.350;6.708;2023-11-19T06:02:02;12.50;99.90
11666;DHT22;5889;51.350;6.708;2023-11-19T06:04:29;12.50;99.90
11666;DHT22;5889;51.350;6.708;2023-11-19T06:06:55;12.50;99.90
11666;DHT22;5889;51.350;6.708;2023-11-19T06:09:22;12.50;99.90
11666;DHT22;5889;51.350;6.708;2023-11-19T06:11:51;12.50;99.90
11666;DHT22;5889;51.350;6.708;2023-11-19T06:14:18;12.50;99.90
11666;DHT22;5889;51.350;6.708;2023-11-19T06:16:45;12.40;99.90
11666;DHT22;5889;51.350;6.708;2023-11-19T06:19:12;12.40;99.90
11666;DHT22;5889;51.350;6.708;2023-11-19T06:21:39;12.40;99.90
11666;DHT22;5889;51.350;6.708;2023-11-19T06:24:06;12.30;99.90
11666;DHT22;5889;51.350;6.708;2023-11-19T06:26:34;12.30;99.90
11666;DHT22;5889;51.350;6.708;2023-11-19T06:29:02;12.30;99.90
11666;DHT22;5889;51.350;6.708;2023-11-19T06:31:29;12.30;99.90
11666;DHT22;5889;51.350;6.708;2023-11-19T06:33:56;12.20;99.90
11666;DHT22;5889;51.350;6.708;2023-11-19T06:36:23;12.30;99.90
11666;DHT22;5889;51.350;6.708;2023-11-19T06:38:52;12.20;99.90
11666;DHT22;5889;51.350;6.708;2023-11-19T06:41:19;12.20;99.90
11666;DHT22;5889;51.350;6.708;2023-11-19T06:43:45;12.20;99.90
11666;DHT22;5889;51.350;6.708;2023-11-19T06:46:17;12.20;99.90
11666;DHT22;5889;51.350;6.708;2023-11-19T06:48:43;12.10;99.90
11666;DHT22;5889;51.350;6.708;2023-11-19T06:51:10;12.10;99.90
11666;DHT22;5889;51.350;6.708;2023-11-19T06:53:37;12.10;99.90
11666;DHT22;5889;51.350;6.708;2023-11-19T06:56:05;12.10;99.90
11666;DHT22;5889;51.350;6.708;2023-11-19T06:58:36;12.00;99.90
11666;DHT22;5889;51.350;6.708;2023-11-19T07:01:03;12.00;99.90
11666;DHT22;5889;51.350;6.708;2023-11-19T07:03:31;12.00;99.90
11666;DHT22;5889;51.350;6.708;2023-11-19T07:05:58;12.00;99.90
11666;DHT22;5889;51.350;6.708;2023-11-19T07:08:25;12.00;99.90
11666;DHT22;5889;51.350;6.708;2023-11-19T07:10:52;11.90;99.90
11666;DHT22;5889;51.350;6.708;2023-11-19T07:13:19;12.00;99.90
11666;DHT22;5889;51.350;6.708;2023-11-19T07:15:46;12.00;99.90
11666;DHT22;5889;51.350;6.708;2023-11-19T07:18:13;11.90;99.90
11666;DHT22;5889;51.350;6.708;2023-11-19T07:20:41;11.90;99.90
11666;DHT22;5889;51.350;6.708;2023-11-19T07:23:09;11.90;99.90
11666;DHT22;5889;51.350;6.708;2023-11-19T07:25:35;11.90;99.90
11666;DHT22;5889;51.350;6.708;2023-11-19T07:28:02;11.90;99.90
11666;DHT22;5889;51.350;6.708;2023-11-19T07:30:30;11.90;99.90
11666;DHT22;5889;51.350;6.708;2023-11-19T07:32:57;11.80;99.90
11666;DHT22;5889;51.350;6.708;2023-11-19T07:35:23;11.80;99.90
11666;DHT22;5889;51.350;6.708;2023-11-19T07:37:51;11.80;99.90
11666;DHT22;5889;51.350;6.708;2023-11-19T07:40:18;11.90;99.90
11666;DHT22;5889;51.350;6.708;2023-11-19T07:42:45;11.90;99.90
11666;DHT22;5889;51.350;6.708;2023-11-19T07:45:12;11.80;99.90
11666;DHT22;5889;51.350;6.708;2023-11-19T07:47:39;11.80;99.90
11666;DHT22;5889;51.350;6.708;2023-11-19T07:50:06;11.90;99.90
11666;DHT22;5889;51.350;6.708;2023-11-19T07:52:33;11.90;99.90
11666;DHT22;5889;51.350;6.708;2023-11-19T07:55:01;11.90;99.90
11666;DHT22;5889;51.350;6.708;2023-11-19T07:57:28;11.90;99.90
11666;DHT22;5889;51.350;6.708;2023-11-19T07:59:56;11.90;99.90
11666;DHT22;5889;51.350;6.708;2023-11-19T08:02:23;11.90;99.90
11666;DHT22;5889;51.350;6.708;2023-11-19T08:04:50;12.00;99.90
11666;DHT22;5889;51.350;6.708;2023-11-19T08:07:17;12.00;99.90
11666;DHT22;5889;51.350;6.708;2023-11-19T08:09:44;12.00;99.90
11666;DHT22;5889;51.350;6.708;2023-11-19T08:12:12;12.10;99.90
11666;DHT22;5889;51.350;6.708;2023-11-19T08:14:40;12.10;99.90
11666;DHT22;5889;51.350;6.708;2023-11-19T08:17:06;12.10;99.90
11666;DHT22;5889;51.350;6.708;2023-11-19T08:19:33;12.20;99.90
11666;DHT22;5889;51.350;6.708;2023-11-19T08:22:00;12.20;99.90
11666;DHT22;5889;51.350;6.708;2023-11-19T08:24:27;12.20;99.90
11666;DHT22;5889;51.350;6.708;2023-11-19T08:26:54;12.20;99.90
11666;DHT22;5889;51.350;6.708;2023-11-19T08:29:22;12.20;99.90
11666;DHT22;5889;51.350;6.708;2023-11-19T08:31:50;12.20;99.90
11666;DHT22;5889;51.350;6.708;2023-11-19T08:34:17;12.20;99.90
11666;DHT22;5889;51.350;6.708;2023-11-19T08:36:44;12.20;99.90
11666;DHT22;5889;51.350;6.708;2023-11-19T08:39:11;12.20;99.90
11666;DHT22;5889;51.350;6.708;2023-11-19T08:41:39;12.30;99.90
11666;DHT22;5889;51.350;6.708;2023-11-19T08:44:07;12.20;99.90
11666;DHT22;5889;51.350;6.708;2023-11-19T08:46:35;12.30;99.90
11666;DHT22;5889;51.350;6.708;2023-11-19T08:49:02;12.30;99.90
11666;DHT22;5889;51.350;6.708;2023-11-19T08:51:29;12.30;99.90
11666;DHT22;5889;51.350;6.708;2023-11-19T08:53:58;12.30;99.90
11666;DHT22;5889;51.350;6.708;2023-11-19T08:56:25;12.40;99.90
11666;DHT22;5889;51.350;6.708;2023-11-19T08:58:57;12.40;99.90
11666;DHT22;5889;51.350;6.708;2023-11-19T09:01:24;12.50;99.90
11666;DHT22;5889;51.350;6.708;2023-11-19T09:03:55;12.50;99.90
11666;DHT22;5889;51.350;6.708;2023-11-19T09:06:23;12.60;99.90
11666;DHT22;5889;51.350;6.708;2023-11-19T09:08:50;12.60;99.90
11666;DHT22;5889;51.350;6.708;2023-11-19T09:11:23;12.70;99.90
11666;DHT22;5889;51.350;6.708;2023-11-19T09:13:50;12.70;99.90
11666;DHT22;5889;51.350;6.708;2023-11-19T09:16:17;12.80;99.90
11666;DHT22;5889;51.350;6.708;2023-11-19T09:18:46;12.80;99.90
11666;DHT22;5889;51.350;6.708;2023-11-19T09:21:14;12.80;99.90
11666;DHT22;5889;51.350;6.708;2023-11-19T09:23:41;12.90;99.90
11666;DHT22;5889;51.350;6.708;2023-11-19T09:26:15;13.00;99.90
11666;DHT22;5889;51.350;6.708;2023-11-19T09:28:41;13.10;99.90
11666;DHT22;5889;51.350;6.708;2023-11-19T09:31:15;13.10;99.90
11666;DHT22;5889;51.350;6.708;2023-11-19T09:33:42;13.10;99.90
11666;DHT22;5889;51.350;6.708;2023-11-19T09:36:10;13.10;99.90
11666;DHT22;5889;51.350;6.708;2023-11-19T09:38:40;13.10;99.90
11666;DHT22;5889;51.350;6.708;2023-11-19T09:41:07;13.10;99.90
11666;DHT22;5889;51.350;6.708;2023-11-19T09:43:38;13.20;99.90
11666;DHT22;5889;51.350;6.708;2023-11-19T09:46:07;13.20;99.90
11666;DHT22;5889;51.350;6.708;2023-11-19T09:48:37;13.20;99.90
11666;DHT22;5889;51.350;6.708;2023-11-19T09:51:06;13.20;99.90
11666;DHT22;5889;51.350;6.708;2023-11-19T09:53:36;13.20;99.90
11666;DHT22;5889;51.350;6.708;2023-11-19T09:56:11;13.30;99.90
11666;DHT22;5889;51.350;6.708;2023-11-19T09:58:38;13.30;99.90
11666;DHT22;5889;51.350;6.708;2023-11-19T10:01:07;13.30;99.90
11666;DHT22;5889;51.350;6.708;2023-11-19T10:03:41;13.30;99.90
11666;DHT22;5889;51.350;6.708;2023-11-19T10:06:11;13.40;99.90
11666;DHT22;5889;51.350;6.708;2023-11-19T10:08:38;13.40;99.90
11666;DHT22;5889;51.350;6.708;2023-11-19T10:11:06;13.40;99.90
11666;DHT22;5889;51.350;6.708;2023-11-19T10:13:38;13.40;99.90
11666;DHT22;5889;51.350;6.708;2023-11-19T10:16:08;13.40;99.90
11666;DHT22;5889;51.350;6.708;2023-11-19T10:18:37;13.40;99.90
11666;DHT22;5889;51.350;6.708;2023-11-19T10:21:05;13.50;99.90
11666;DHT22;5889;51.350;6.708;2023-11-19T10:23:51;13.50;99.90
11666;DHT22;5889;51.350;6.708;2023-11-19T10:26:21;13.60;99.90
11666;DHT22;5889;51.350;6.708;2023-11-19T10:28:50;13.60;99.90
11666;DHT22;5889;51.350;6.708;2023-11-19T10:31:18;13.60;99.90
11666;DHT22;5889;51.350;6.708;2023-11-19T10:33:50;13.70;99.90
11666;DHT22;5889;51.350;6.708;2023-11-19T10:36:17;13.80;99.90
11666;DHT22;5889;51.350;6.708;2023-11-19T10:38:52;13.80;99.90
11666;DHT22;5889;51.350;6.708;2023-11-19T10:41:27;13.80;99.90
11666;DHT22;5889;51.350;6.708;2023-11-19T10:43:55;13.90;99.90
11666;DHT22;5889;51.350;6.708;2023-11-19T10:46:22;13.90;99.90
11666;DHT22;5889;51.350;6.708;2023-11-19T10:48:49;13.90;99.90
11666;DHT22;5889;51.350;6.708;2023-11-19T10:51:19;13.90;99.90
11666;DHT22;5889;51.350;6.708;2023-11-19T10:53:49;13.90;99.90
11666;DHT22;5889;51.350;6.708;2023-11-19T10:56:16;14.00;99.90
11666;DHT22;5889;51.350;6.708;2023-11-19T10:58:45;14.00;99.90
11666;DHT22;5889;51.350;6.708;2023-11-19T11:01:18;14.10;99.90
11666;DHT22;5889;51.350;6.708;2023-11-19T11:03:46;14.20;99.90
11666;DHT22;5889;51.350;6.708;2023-11-19T11:06:15;14.20;99.90
11666;DHT22;5889;51.350;6.708;2023-11-19T11:08:42;14.20;99.90
11666;DHT22;5889;51.350;6.708;2023-11-19T11:11:15;14.20;99.90
11666;DHT22;5889;51.350;6.708;2023-11-19T11:13:43;14.30;99.90
11666;DHT22;5889;51.350;6.708;2023-11-19T11:16:10;14.30;99.90
11666;DHT22;5889;51.350;6.708;2023-11-19T11:18:38;14.30;99.90
11666;DHT22;5889;51.350;6.708;2023-11-19T11:21:09;14.40;99.90
11666;DHT22;5889;51.350;6.708;2023-11-19T11:23:53;14.40;99.90
11666;DHT22;5889;51.350;6.708;2023-11-19T11:26:49;14.50;99.90
11666;DHT22;5889;51.350;6.708;2023-11-19T11:29:24;14.50;99.90
11666;DHT22;5889;51.350;6.708;2023-11-19T11:32:00;14.50;99.90
11666;DHT22;5889;51.350;6.708;2023-11-19T11:34:47;14.50;99.90
11666;DHT22;5889;51.350;6.708;2023-11-19T11:37:18;14.50;99.90
11666;DHT22;5889;51.350;6.708;2023-11-19T11:39:46;14.50;99.90
11666;DHT22;5889;51.350;6.708;2023-11-19T11:42:35;14.50;99.90
11666;DHT22;5889;51.350;6.708;2023-11-19T11:45:05;14.60;99.90
11666;DHT22;5889;51.350;6.708;2023-11-19T11:48:10;14.60;99.90
11666;DHT22;5889;51.350;6.708;2023-11-19T11:50:53;14.70;99.90
11666;DHT22;5889;51.350;6.708;2023-11-19T11:53:22;14.60;99.90
11666;DHT22;5889;51.350;6.708;2023-11-19T11:55:56;14.50;99.90
11666;DHT22;5889;51.350;6.708;2023-11-19T11:58:35;14.50;99.90
11666;DHT22;5889;51.350;6.708;2023-11-19T12:01:03;14.50;99.90
11666;DHT22;5889;51.350;6.708;2023-11-19T12:03:32;14.40;99.90
11666;DHT22;5889;51.350;6.708;2023-11-19T12:06:01;14.40;99.90
11666;DHT22;5889;51.350;6.708;2023-11-19T12:08:29;14.40;99.90
11666;DHT22;5889;51.350;6.708;2023-11-19T12:10:58;14.40;99.90
11666;DHT22;5889;51.350;6.708;2023-11-19T12:13:42;14.40;99.90
11666;DHT22;5889;51.350;6.708;2023-11-19T12:16:11;14.40;99.90
11666;DHT22;5889;51.350;6.708;2023-11-19T12:18:39;14.40;99.90
11666;DHT22;5889;51.350;6.708;2023-11-19T12:21:10;14.40;99.90
11666;DHT22;5889;51.350;6.708;2023-11-19T12:23:47;14.50;99.90
11666;DHT22;5889;51.350;6.708;2023-11-19T12:26:37;14.60;99.90
11666;DHT22;5889;51.350;6.708;2023-11-19T12:29:06;14.60;99.90
11666;DHT22;5889;51.350;6.708;2023-11-19T12:31:33;14.60;99.90
11666;DHT22;5889;51.350;6.708;2023-11-19T12:34:08;14.60;99.90
11666;DHT22;5889;51.350;6.708;2023-11-19T12:36:39;14.50;99.90
11666;DHT22;5889;51.350;6.708;2023-11-19T12:39:06;14.50;99.90
11666;DHT22;5889;51.350;6.708;2023-11-19T12:41:52;14.40;99.90
11666;DHT22;5889;51.350;6.708;2023-11-19T12:44:19;14.40;99.90
11666;DHT22;5889;51.350;6.708;2023-11-19T12:46:46;14.30;99.90
11666;DHT22;5889;51.350;6.708;2023-11-19T12:49:13;14.20;99.90
11666;DHT22;5889;51.350;6.708;2023-11-19T12:51:41;14.00;99.90
11666;DHT22;5889;51.350;6.708;2023-11-19T12:54:08;14.00;99.90
11666;DHT22;5889;51.350;6.708;2023-11-19T12:56:35;13.80;99.90
11666;DHT22;5889;51.350;6.708;2023-11-19T12:59:12;13.60;99.90
11666;DHT22;5889;51.350;6.708;2023-11-19T13:01:39;13.20;99.90
11666;DHT22;5889;51.350;6.708;2023-11-19T13:04:16;13.10;99.90
11666;DHT22;5889;51.350;6.708;2023-11-19T13:06:46;13.20;99.90
11666;DHT22;5889;51.350;6.708;2023-11-19T13:09:22;13.20;99.90
11666;DHT22;5889;51.350;6.708;2023-11-19T13:11:49;13.30;99.90
11666;DHT22;5889;51.350;6.708;2023-11-19T13:14:16;13.30;99.90
11666;DHT22;5889;51.350;6.708;2023-11-19T13:16:43;13.40;99.90
11666;DHT22;5889;51.350;6.708;2023-11-19T13:19:11;13.50;99.90
11666;DHT22;5889;51.350;6.708;2023-11-19T13:21:37;13.60;99.90
11666;DHT22;5889;51.350;6.708;2023-11-19T13:24:06;13.70;99.90
11666;DHT22;5889;51.350;6.708;2023-11-19T13:26:33;13.90;99.90
11666;DHT22;5889;51.350;6.708;2023-11-19T13:29:01;13.90;99.90
11666;DHT22;5889;51.350;6.708;2023-11-19T13:31:27;14.00;99.90
11666;DHT22;5889;51.350;6.708;2023-11-19T13:33:54;14.00;99.90
11666;DHT22;5889;51.350;6.708;2023-11-19T13:36:24;14.00;99.90
11666;DHT22;5889;51.350;6.708;2023-11-19T13:38:51;14.00;99.90
11666;DHT22;5889;51.350;6.708;2023-11-19T13:41:25;14.00;99.90
11666;DHT22;5889;51.350;6.708;2023-11-19T13:43:52;14.00;99.90
11666;DHT22;5889;51.350;6.708;2023-11-19T13:46:19;13.90;99.90
11666;DHT22;5889;51.350;6.708;2023-11-19T13:48:46;14.00;99.90
11666;DHT22;5889;51.350;6.708;2023-11-19T13:51:15;13.90;99.90
11666;DHT22;5889;51.350;6.708;2023-11-19T13:53:41;13.90;99.90
11666;DHT22;5889;51.350;6.708;2023-11-19T13:56:09;13.80;99.90
11666;DHT22;5889;51.350;6.708;2023-11-19T13:58:37;13.70;99.90
11666;DHT22;5889;51.350;6.708;2023-11-19T14:01:04;13.70;99.90
11666;DHT22;5889;51.350;6.708;2023-11-19T14:03:31;13.60;99.90
11666;DHT22;5889;51.350;6.708;2023-11-19T14:05:59;13.60;99.90
11666;DHT22;5889;51.350;6.708;2023-11-19T14:08:26;13.60;99.90
11666;DHT22;5889;51.350;6.708;2023-11-19T14:10:53;13.50;99.90
11666;DHT22;5889;51.350;6.708;2023-11-19T14:13:20;13.50;99.90
11666;DHT22;5889;51.350;6.708;2023-11-19T14:15:49;13.50;99.90
11666;DHT22;5889;51.350;6.708;2023-11-19T14:18:16;13.40;99.90
11666;DHT22;5889;51.350;6.708;2023-11-19T14:20:43;13.40;99.90
11666;DHT22;5889;51.350;6.708;2023-11-19T14:23:09;13.40;99.90
11666;DHT22;5889;51.350;6.708;2023-11-19T14:25:36;13.40;99.90
11666;DHT22;5889;51.350;6.708;2023-11-19T14:28:03;13.40;99.90
11666;DHT22;5889;51.350;6.708;2023-11-19T14:30:30;13.40;99.90
11666;DHT22;5889;51.350;6.708;2023-11-19T14:32:58;13.40;99.90
11666;DHT22;5889;51.350;6.708;2023-11-19T14:35:25;13.30;99.90
11666;DHT22;5889;51.350;6.708;2023-11-19T14:37:52;13.30;99.90
11666;DHT22;5889;51.350;6.708;2023-11-19T14:40:19;13.20;99.90
11666;DHT22;5889;51.350;6.708;2023-11-19T14:42:45;13.10;99.90
11666;DHT22;5889;51.350;6.708;2023-11-19T14:45:12;13.10;99.90
11666;DHT22;5889;51.350;6.708;2023-11-19T14:47:39;13.00;99.90
11666;DHT22;5889;51.350;6.708;2023-11-19T14:50:07;12.90;99.90
11666;DHT22;5889;51.350;6.708;2023-11-19T14:52:35;12.80;99.90
11666;DHT22;5889;51.350;6.708;2023-11-19T14:55:01;12.80;99.90
11666;DHT22;5889;51.350;6.708;2023-11-19T14:57:28;12.70;99.90
11666;DHT22;5889;51.350;6.708;2023-11-19T14:59:55;12.70;99.90
11666;DHT22;5889;51.350;6.708;2023-11-19T15:02:21;12.60;99.90
11666;DHT22;5889;51.350;6.708;2023-11-19T15:04:48;12.50;99.90
11666;DHT22;5889;51.350;6.708;2023-11-19T15:07:16;12.50;99.90
11666;DHT22;5889;51.350;6.708;2023-11-19T15:09:43;12.50;99.90
11666;DHT22;5889;51.350;6.708;2023-11-19T15:12:11;12.40;99.90
11666;DHT22;5889;51.350;6.708;2023-11-19T15:14:37;12.40;99.90
11666;DHT22;5889;51.350;6.708;2023-11-19T15:17:04;12.40;99.90
11666;DHT22;5889;51.350;6.708;2023-11-19T15:19:35;12.40;99.90
11666;DHT22;5889;51.350;6.708;2023-11-19T15:22:01;12.40;99.90
11666;DHT22;5889;51.350;6.708;2023-11-19T15:24:32;12.30;99.90
11666;DHT22;5889;51.350;6.708;2023-11-19T15:26:59;12.30;99.90
11666;DHT22;5889;51.350;6.708;2023-11-19T15:29:26;12.30;99.90
11666;DHT22;5889;51.350;6.708;2023-11-19T15:31:53;12.30;99.90
11666;DHT22;5889;51.350;6.708;2023-11-19T15:34:20;12.30;99.90
11666;DHT22;5889;51.350;6.708;2023-11-19T15:36:47;12.20;99.90
11666;DHT22;5889;51.350;6.708;2023-11-19T15:39:14;12.20;99.90
11666;DHT22;5889;51.350;6.708;2023-11-19T15:41:42;12.20;99.90
11666;DHT22;5889;51.350;6.708;2023-11-19T15:44:09;12.20;99.90
11666;DHT22;5889;51.350;6.708;2023-11-19T15:46:36;12.30;99.90
11666;DHT22;5889;51.350;6.708;2023-11-19T15:49:06;12.30;99.90
11666;DHT22;5889;51.350;6.708;2023-11-19T15:51:33;12.20;99.90
11666;DHT22;5889;51.350;6.708;2023-11-19T15:53:59;12.20;99.90